Data for 06/05/2017

Time Sea-Level Adjusted Pressure Absolute Pressure Temperature Relative Humidity Dew Point   
(mb) (inHg) (mb) (inHg) (C) (F) (%) (C) (F)
00:05 1017 30.03 846 24.98 13.3 55.9 87 11.1 51.9
00:10 1017 30.03 846 24.98 13.3 56 84 10.7 51.3
00:15 1017 30.03 847 25.01 13.4 56.2 84 10.8 51.4
00:20 1017 30.03 846 24.98 13.6 56.5 84 11 51.7
00:25 1017 30.03 846 24.98 13.5 56.3 83 10.6 51.1
00:30 1017 30.03 846 24.98 13.5 56.4 84 10.9 51.6
00:35 1017 30.03 846 24.98 13.7 56.7 83 11 51.8
00:40 1017 30.03 846 24.98 13.8 56.9 83 10.9 51.7
00:45 1017 30.03 846 24.98 14 57.1 86 11.6 53
00:50 1017 30.03 846 24.98 13.9 57.1 85 11.4 52.6
00:55 1017 30.03 846 24.98 13.7 56.7 83 10.8 51.5
01:00 1017 30.03 846 24.98 13.9 57 80 10.6 51.1
01:05 1018 30.06 847 25.01 13.9 57.1 81 10.7 51.3
01:10 1018 30.06 847 25.01 14 57.2 82 11 51.8
01:15 1018 30.06 847 25.01 13.9 57 84 11.2 52.2
01:20 1018 30.06 847 25.01 13.7 56.7 86 11.5 52.6
01:25 1018 30.06 847 25.01 13.5 56.4 86 11.3 52.4
01:30 1018 30.06 847 25.01 13.3 55.9 88 11.4 52.5
01:35 1018 30.06 847 25.01 13.3 55.9 88 11.4 52.5
01:40 1018 30.06 847 25.01 13.1 55.7 89 11.3 52.3
01:45 1018 30.06 847 25.01 13.2 55.7 89 11.4 52.5
01:50 1018 30.06 847 25.01 13.3 55.9 88 11.3 52.4
01:55 1018 30.06 847 25.01 13.3 56 86 11 51.8
02:00 1018 30.06 847 25.01 13.4 56.2 85 11 51.7
02:05 1018 30.06 847 25.01 13.7 56.6 82 10.7 51.3
02:10 1018 30.06 848 25.04 13.7 56.7 84 11 51.8
02:15 1018 30.06 847 25.01 13.5 56.2 84 10.9 51.6
02:20 1018 30.06 847 25.01 13 55.3 85 10.4 50.8
02:25 1018 30.06 847 25.01 12.6 54.6 84 9.9 49.7
02:30 1018 30.06 847 25.01 12.2 54 84 9.5 49.2
02:35 1018 30.06 847 25.01 12 53.7 85 9.5 49.2
02:40 1018 30.06 847 25.01 11.7 53 85 9.2 48.6
02:45 1018 30.06 847 25.01 11.3 52.4 87 9.3 48.7
02:50 1018 30.06 847 25.01 11.3 52.3 88 9.3 48.8
02:55 1018 30.06 847 25.01 11.3 52.4 87 9.3 48.7
03:00 1018 30.06 847 25.01 11.3 52.3 87 9.2 48.6
03:05 1018 30.06 847 25.01 11.2 52.2 87 9.2 48.5
03:10 1018 30.06 847 25.01 11.2 52.2 86 9.1 48.3
03:15 1018 30.06 847 25.01 11.2 52.1 87 9.1 48.4
03:20 1018 30.06 847 25.01 11.1 52 88 9.2 48.5
03:25 1018 30.06 847 25.01 11.2 52.1 87 9.1 48.4
03:30 1018 30.06 847 25.01 11.1 52 87 9.1 48.4
03:35 1018 30.06 847 25.01 11 51.8 87 9 48.2
03:40 1018 30.06 847 25.01 10.7 51.3 88 8.9 48.1
03:45 1018 30.06 847 25.01 10.6 51.2 88 8.7 47.7
03:50 1018 30.06 847 25.01 10.6 51.2 87 8.6 47.5
03:55 1018 30.06 847 25.01 10.7 51.2 88 8.7 47.7
04:00 1018 30.06 847 25.01 10.6 51.1 85 8.3 46.9
04:05 1018 30.06 847 25.01 10.7 51.2 84 8.1 46.6
04:10 1018 30.06 847 25.01 10.7 51.3 80 7.5 45.5
04:15 1018 30.06 847 25.01 10.7 51.3 81 7.6 45.7
04:20 1018 30.06 847 25.01 10.7 51.3 82 7.9 46.2
04:25 1018 30.06 847 25.01 10.7 51.2 84 8.1 46.6
04:30 1018 30.06 847 25.01 10.6 51.1 84 8.1 46.6
04:35 1018 30.06 847 25.01 10.6 51 84 8 46.3
04:40 1018 30.06 847 25.01 10.6 51.1 85 8.2 46.7
04:45 1018 30.06 848 25.04 10.5 50.9 85 8.1 46.5
04:50 1018 30.06 848 25.04 10.4 50.8 85 8 46.3
04:55 1019 30.09 848 25.04 10.4 50.7 84 7.8 46.1
05:00 1019 30.09 848 25.04 10.4 50.7 82 7.5 45.5
05:05 1019 30.09 848 25.04 10.6 51.1 81 7.4 45.4
05:10 1019 30.09 848 25.04 10.7 51.3 81 7.6 45.7
05:15 1019 30.09 848 25.04 10.9 51.6 81 7.8 46
05:20 1019 30.09 848 25.04 11.1 52 82 8.1 46.6
05:25 1019 30.09 849 25.07 11.1 52 82 8.1 46.6
05:30 1019 30.09 849 25.07 10.9 51.6 82 8 46.4
05:35 1020 30.12 849 25.07 10.7 51.2 83 7.9 46.2
05:40 1020 30.12 849 25.07 10.6 51.1 82 7.7 45.9
05:45 1020 30.12 849 25.07 10.5 50.9 82 7.6 45.6
05:50 1020 30.12 849 25.07 10.5 50.8 83 7.8 46
05:55 1020 30.12 849 25.07 10.5 50.8 83 7.7 45.8
06:00 1020 30.12 849 25.07 10.4 50.7 84 7.8 46.1
06:05 1020 30.12 849 25.07 10.4 50.8 84 7.8 46.1
06:10 1020 30.12 849 25.07 10.5 50.9 83 7.7 45.9
06:15 1020 30.12 849 25.07 10.5 50.9 81 7.5 45.4
06:20 1020 30.12 850 25.1 10.4 50.8 81 7.4 45.3
06:25 1020 30.12 850 25.1 10.4 50.7 81 7.3 45.1
06:30 1020 30.12 850 25.1 10.3 50.6 82 7.4 45.2
06:35 1021 30.15 850 25.1 10.4 50.7 83 7.6 45.7
06:40 1021 30.15 850 25.1 10.6 51 81 7.4 45.3
06:45 1021 30.15 850 25.1 10.5 51 81 7.4 45.3
06:50 1021 30.15 850 25.1 10.6 51 80 7.2 45
06:55 1021 30.15 850 25.1 10.7 51.3 79 7.2 44.9
07:00 1021 30.15 850 25.1 10.9 51.7 79 7.4 45.3
07:05 1021 30.15 850 25.1 11.2 52.1 76 7.2 44.9
07:10 1021 30.15 850 25.1 11.4 52.4 74 6.8 44.3
07:15 1021 30.15 850 25.1 11.3 52.3 74 6.9 44.4
07:20 1021 30.15 850 25.1 11.4 52.4 74 6.9 44.5
07:25 1021 30.15 850 25.1 11.7 53.1 72 6.9 44.4
07:30 1021 30.15 850 25.1 11.7 53.1 73 7 44.6
07:35 1021 30.15 850 25.1 12.2 53.9 69 6.7 44
07:40 1021 30.15 850 25.1 12.8 55 69 7.3 45.1
07:45 1021 30.15 850 25.1 12.8 55.1 65 6.4 43.6
07:50 1021 30.15 851 25.13 13.6 56.4 58 5.6 42
07:55 1021 30.15 851 25.13 13.7 56.7 59 5.9 42.7
08:00 1021 30.15 851 25.13 13.7 56.7 59 6 42.8
08:05 1022 30.18 851 25.13 13.5 56.3 58 5.6 42
08:10 1022 30.18 851 25.13 13.7 56.7 56 5.2 41.3
08:15 1022 30.18 851 25.13 14 57.1 57 5.7 42.2
08:20 1022 30.18 851 25.13 14.3 57.7 55 5.6 42
08:25 1022 30.18 851 25.13 14.7 58.4 53 5.2 41.3
08:30 1022 30.18 851 25.13 14.6 58.3 54 5.5 41.9
08:35 1022 30.18 851 25.13 14.6 58.4 52 4.9 40.7
08:40 1022 30.18 851 25.13 14.4 57.9 52 4.8 40.7
08:45 1022 30.18 851 25.13 14.4 57.9 52 4.8 40.7
08:50 1022 30.18 851 25.13 14.9 58.8 51 5 40.9
08:55 1022 30.18 851 25.13 14.8 58.7 51 4.8 40.7
09:00 1022 30.18 851 25.13 14.7 58.5 54 5.6 42.1
09:05 1022 30.18 851 25.13 14.3 57.8 55 5.5 42
09:10 1022 30.18 851 25.13 14.6 58.3 53 5.2 41.3
09:15 1022 30.18 851 25.13 15.3 59.6 51 5.2 41.4
09:20 1022 30.18 851 25.13 15.5 59.9 48 4.5 40.2
09:25 1022 30.18 851 25.13 14.8 58.6 49 4.3 39.7
09:30 1022 30.18 851 25.13 15.5 59.9 47 4.3 39.7
09:35 1022 30.18 851 25.13 16.1 60.9 46 4.4 39.9
09:40 1022 30.18 851 25.13 15.6 60.1 47 4.4 40
09:45 1022 30.18 851 25.13 15.3 59.6 47 4 39.3
09:50 1022 30.18 851 25.13 15.5 59.9 47 4.3 39.8
09:55 1022 30.18 851 25.13 16.8 62.3 43 4.2 39.6
10:00 1022 30.18 851 25.13 16.9 62.4 43 4.4 39.9
10:05 1022 30.18 851 25.13 16.6 61.9 45 4.7 40.5
10:10 1022 30.18 851 25.13 16.5 61.8 43 4 39.2
10:15 1022 30.18 851 25.13 16.9 62.3 43 4.3 39.7
10:20 1022 30.18 851 25.13 17 62.5 45 5.1 41.2
10:25 1022 30.18 851 25.13 16.7 62 44 4.4 39.9
10:30 1022 30.18 851 25.13 16.7 62.1 44 4.4 39.9
10:35 1022 30.18 851 25.13 17.1 62.7 43 4.5 40.1
10:40 1022 30.18 851 25.13 16.8 62.2 46 5.3 41.5
10:45 1022 30.18 851 25.13 16.7 62.1 45 4.9 40.9
10:50 1022 30.18 851 25.13 16.8 62.3 44 4.6 40.2
10:55 1022 30.18 851 25.13 16.9 62.3 46 5.3 41.5
11:00 1022 30.18 851 25.13 16.8 62.2 45 4.9 40.8
11:05 1022 30.18 851 25.13 17.6 63.7 42 4.8 40.6
11:10 1022 30.18 851 25.13 17.7 63.9 43 5 41
11:15 1022 30.18 851 25.13 17.6 63.7 42 4.6 40.3
11:20 1022 30.18 851 25.13 17.3 63.1 43 4.7 40.5
11:25 1022 30.18 851 25.13 17.7 63.8 42 4.8 40.7
11:30 1022 30.18 851 25.13 18 64.5 43 5.3 41.5
11:35 1022 30.18 851 25.13 17.9 64.2 40 4.3 39.8
11:40 1022 30.18 851 25.13 18.2 64.8 40 4.6 40.3
11:45 1022 30.18 851 25.13 18.6 65.4 38 4.1 39.4
11:50 1022 30.18 851 25.13 18.9 65.9 39 4.9 40.7
11:55 1022 30.18 851 25.13 17.4 63.3 44 5.1 41.3
12:00 1022 30.18 851 25.13 17.2 62.9 41 3.9 39
12:05 1022 30.18 851 25.13 18.4 65.1 39 4.2 39.5
12:10 1022 30.18 851 25.13 18.1 64.6 41 4.7 40.5
12:15 1022 30.18 851 25.13 18.2 64.7 39 4 39.1
12:20 1022 30.18 851 25.13 18.7 65.7 37 3.7 38.7
12:25 1022 30.18 851 25.13 19.4 66.9 39 5.1 41.3
12:30 1022 30.18 851 25.13 18.5 65.3 38 4.1 39.4
12:35 1022 30.18 851 25.13 18.7 65.6 37 3.7 38.6
12:40 1022 30.18 851 25.13 19.1 66.4 35 3.5 38.3
12:45 1022 30.18 851 25.13 19.2 66.5 36 3.8 38.8
12:50 1022 30.18 851 25.13 19.2 66.6 36 3.8 38.9
12:55 1022 30.18 851 25.13 19.5 67.1 33 3.1 37.5
13:00 1022 30.18 851 25.13 19.5 67.2 36 4.2 39.5
13:05 1022 30.18 851 25.13 19.8 67.6 34 3.6 38.4
13:10 1022 30.18 851 25.13 19.3 66.8 34 3.2 37.8
13:15 1022 30.18 851 25.13 19.4 66.9 35 3.5 38.4
13:20 1022 30.18 851 25.13 18.8 65.8 36 3.4 38.2
13:25 1022 30.18 851 25.13 18.2 64.7 34 2.4 36.2
13:30 1022 30.18 851 25.13 19.2 66.5 33 2.7 36.9
13:35 1022 30.18 851 25.13 19 66.2 33 2.6 36.7
13:40 1022 30.18 851 25.13 19.2 66.5 33 2.8 37.1
13:45 1022 30.18 851 25.13 19.9 67.8 30 1.9 35.4
13:50 1022 30.18 851 25.13 20.2 68.4 30 2.2 36
13:55 1022 30.18 851 25.13 20.2 68.3 30 2.4 36.3
14:00 1022 30.18 851 25.13 20 67.9 30 1.9 35.5
14:05 1022 30.18 851 25.13 20.4 68.7 29 1.8 35.2
14:10 1022 30.18 851 25.13 20.1 68.1 28 1.2 34.2
14:15 1022 30.18 851 25.13 19.9 67.9 30 2 35.5
14:20 1022 30.18 851 25.13 20.6 69.1 29 2.2 36
14:25 1022 30.18 851 25.13 21.1 70 27 1.7 35.1
14:30 1022 30.18 851 25.13 20.3 68.5 29 1.9 35.4
14:35 1022 30.18 851 25.13 20.3 68.5 28 1.5 34.7
14:40 1022 30.18 851 25.13 20.8 69.5 27 1.5 34.6
14:45 1022 30.18 851 25.13 20.6 69.1 28 1.5 34.6
14:50 1022 30.18 851 25.13 20.3 68.5 28 1.3 34.3
14:55 1022 30.18 851 25.13 20.6 69.1 27 1.2 34.1
15:00 1022 30.18 851 25.13 20.4 68.8 26 0.6 33.1
15:05 1022 30.18 851 25.13 20.6 69.2 28 1.6 35
15:10 1022 30.18 851 25.13 21 69.8 27 1.3 34.4
15:15 1022 30.18 851 25.13 21.4 70.6 26 1.2 34.2
15:20 1022 30.18 851 25.13 21.5 70.7 26 1.3 34.4
15:25 1022 30.18 851 25.13 21.4 70.5 25 0.9 33.6
15:30 1022 30.18 851 25.13 21 69.9 26 1.1 33.9
15:35 1022 30.18 851 25.13 21.3 70.3 25 0.9 33.6
15:40 1022 30.18 851 25.13 21.2 70.2 27 1.6 34.8
15:45 1022 30.18 851 25.13 21.5 70.7 25 0.6 33.1
15:50 1022 30.18 851 25.13 21.3 70.3 25 0.9 33.6
15:55 1022 30.18 851 25.13 21 69.7 26 0.9 33.6
16:00 1022 30.18 851 25.13 21.1 69.9 26 1 33.7
16:05 1022 30.18 851 25.13 20.9 69.6 27 1.2 34.2
16:10 1022 30.18 851 25.13 20.5 68.9 26 0.5 32.9
16:15 1022 30.18 851 25.13 20.3 68.5 27 0.9 33.6
16:20 1022 30.18 851 25.13 19.6 67.2 28 0.7 33.2
16:25 1022 30.18 851 25.13 19.9 67.9 27 0.6 33.1
16:30 1022 30.18 851 25.13 20 68.1 27 0.8 33.5
16:35 1022 30.18 851 25.13 20.7 69.3 26 0.5 32.8
16:40 1022 30.18 851 25.13 21.1 70 25 0.6 33.1
16:45 1022 30.18 851 25.13 20.8 69.4 26 0.8 33.4
16:50 1022 30.18 851 25.13 20.4 68.7 28 1.2 34.2
16:55 1022 30.18 851 25.13 20.4 68.8 26 0.6 33
17:00 1022 30.18 851 25.13 20.3 68.5 26 0.4 32.7
17:05 1022 30.18 851 25.13 20.3 68.6 26 0.4 32.8
17:10 1022 30.18 851 25.13 20.7 69.2 26 0.5 32.9
17:15 1022 30.18 851 25.13 20.4 68.7 27 1 33.8
17:20 1022 30.18 851 25.13 20 68 27 0.5 33
17:25 1022 30.18 851 25.13 19.3 66.7 28 0.4 32.7
17:30 1022 30.18 851 25.13 18.8 65.8 29 0.5 32.8
17:35 1022 30.18 851 25.13 19 66.2 28 0.2 32.4
17:40 1022 30.18 851 25.13 19.4 66.9 27 0.2 32.3
17:45 1022 30.18 851 25.13 19.3 66.8 27 0 32
17:50 1022 30.18 851 25.13 18.9 66.1 29 0.5 32.9
17:55 1022 30.18 851 25.13 19.1 66.4 28 0.4 32.7
18:00 1022 30.18 851 25.13 19.1 66.3 29 0.8 33.5
18:05 1022 30.18 851 25.13 19 66.1 29 0.5 33
18:10 1022 30.18 851 25.13 18.9 65.9 29 0.7 33.3
18:15 1022 30.18 851 25.13 18.8 65.8 31 1.2 34.2
18:20 1022 30.18 851 25.13 18.7 65.7 30 1.1 33.9
18:25 1022 30.18 851 25.13 18.7 65.6 30 0.9 33.7
18:30 1022 30.18 851 25.13 18.5 65.3 30 0.7 33.2
18:35 1022 30.18 852 25.16 18.2 64.7 31 0.9 33.7
18:40 1022 30.18 852 25.16 17.6 63.7 33 1.2 34.1
18:45 1022 30.18 852 25.16 17.6 63.8 30 0.1 32.3
18:50 1022 30.18 852 25.16 17.6 63.7 31 0.6 33.1
18:55 1022 30.18 852 25.16 17.4 63.3 31 0.4 32.8
19:00 1022 30.18 852 25.16 17.5 63.4 32 0.6 33
19:05 1022 30.18 852 25.16 17.6 63.6 31 0.6 33.1
19:10 1022 30.18 852 25.16 17.3 63.1 32 0.4 32.6
19:15 1023 30.21 852 25.16 17.1 62.8 32 0.6 33
19:20 1023 30.21 852 25.16 17.1 62.9 31 -0.1 31.8
19:25 1023 30.21 852 25.16 17.3 63.2 30 -0.3 31.5
19:30 1023 30.21 852 25.16 17.6 63.6 30 -0.2 31.6
19:35 1023 30.21 852 25.16 17.5 63.4 38 3.1 37.5
19:40 1023 30.21 852 25.16 16.6 61.9 46 5.2 41.4
19:45 1023 30.21 852 25.16 16.3 61.3 50 5.9 42.6
19:50 1023 30.21 852 25.16 15.9 60.7 52 6.1 43
19:55 1023 30.21 852 25.16 15.7 60.2 53 6.1 43
20:00 1023 30.21 852 25.16 15.5 59.9 53 6 42.8
20:05 1023 30.21 852 25.16 15.3 59.6 54 6.1 42.9
20:10 1023 30.21 852 25.16 15.2 59.3 53 5.9 42.6
20:15 1023 30.21 852 25.16 15 58.9 55 6 42.8
20:20 1023 30.21 852 25.16 14.8 58.7 54 5.7 42.3
20:25 1023 30.21 852 25.16 14.7 58.5 55 5.8 42.4
20:30 1023 30.21 852 25.16 14.6 58.3 55 5.8 42.4
20:35 1023 30.21 852 25.16 14.6 58.2 55 5.6 42.1
20:40 1023 30.21 852 25.16 14.5 58 55 5.7 42.3
20:45 1023 30.21 853 25.19 14.3 57.8 56 5.6 42.1
20:50 1023 30.21 853 25.19 14.2 57.6 56 5.6 42
20:55 1023 30.21 853 25.19 14.2 57.5 56 5.5 42
21:00 1023 30.21 853 25.19 14.1 57.4 56 5.5 41.9
21:05 1024 30.24 853 25.19 14.1 57.4 55 5.3 41.6
21:10 1024 30.24 853 25.19 14.1 57.4 56 5.5 41.9
21:15 1024 30.24 853 25.19 14 57.2 56 5.4 41.7
21:20 1024 30.24 853 25.19 13.9 57.1 56 5.4 41.7
21:25 1024 30.24 853 25.19 13.8 56.9 57 5.5 41.9
21:30 1024 30.24 853 25.19 13.7 56.7 57 5.5 41.8
21:35 1024 30.24 853 25.19 13.6 56.5 57 5.4 41.7
21:40 1024 30.24 853 25.19 13.6 56.4 57 5.3 41.5
21:45 1024 30.24 853 25.19 13.5 56.4 57 5.3 41.5
21:50 1024 30.24 853 25.19 13.5 56.4 57 5.2 41.4
21:55 1024 30.24 853 25.19 13.6 56.4 57 5.2 41.3
22:00 1024 30.24 853 25.19 13.6 56.4 57 5.2 41.3
22:05 1024 30.24 853 25.19 13.5 56.2 57 5.2 41.4
22:10 1024 30.24 853 25.19 13.4 56.1 58 5.3 41.5
22:15 1024 30.24 853 25.19 13.3 55.9 58 5.2 41.4
22:20 1024 30.24 853 25.19 13.1 55.7 58 5.2 41.3
22:25 1024 30.24 853 25.19 13.1 55.7 58 5.2 41.3
22:30 1024 30.24 853 25.19 13.1 55.6 58 5.1 41.1
22:35 1024 30.24 853 25.19 13.1 55.6 58 5 41.1
22:40 1024 30.24 853 25.19 13.1 55.5 58 5 41
22:45 1024 30.24 853 25.19 13 55.3 58 5 41
22:50 1024 30.24 853 25.19 12.9 55.2 59 5.1 41.2
22:55 1024 30.24 853 25.19 12.7 54.9 59 5 41.1
23:00 1024 30.24 853 25.19 12.7 54.8 59 4.9 40.9
23:05 1024 30.24 853 25.19 12.6 54.7 59 4.8 40.7
23:10 1024 30.24 853 25.19 12.6 54.6 59 4.9 40.8
23:15 1024 30.24 853 25.19 12.5 54.5 58 4.6 40.4
23:20 1024 30.24 853 25.19 12.5 54.5 59 4.7 40.4
23:25 1024 30.24 853 25.19 12.5 54.4 59 4.6 40.3
23:30 1024 30.24 853 25.19 12.5 54.4 59 4.7 40.4
23:35 1024 30.24 853 25.19 12.3 54.1 59 4.7 40.4
23:40 1024 30.24 853 25.19 12.2 54 59 4.6 40.3
23:45 1024 30.24 853 25.19 12.2 54 60 4.7 40.4
23:50 1024 30.24 853 25.19 12.1 53.8 60 4.6 40.2
23:55 1024 30.24 853 25.19 12.1 53.8 60 4.5 40.2
24:00 1024 30.24 853 25.19 12.1 53.7 60 4.6 40.3